createdAt,value
2022-11-15T00:00:22.063Z,67.75
2022-11-15T00:05:41.144Z,67.45
2022-11-15T00:11:04.100Z,70.68
2022-11-15T00:16:23.170Z,70.35
2022-11-15T00:21:42.331Z,73.22
2022-11-15T00:27:05.461Z,69.53
2022-11-15T00:32:27.077Z,70.63
2022-11-15T00:37:47.549Z,69.60
2022-11-15T00:43:08.329Z,76.13
2022-11-15T00:48:27.374Z,78.35
2022-11-15T00:53:46.717Z,76.32
2022-11-15T00:59:07.218Z,76.35
2022-11-15T01:04:26.495Z,80.43
2022-11-15T01:09:45.608Z,78.07
2022-11-15T01:15:07.338Z,77.53
2022-11-15T01:20:26.941Z,83.40
2022-11-15T01:25:46.362Z,77.70
2022-11-15T01:31:08.399Z,74.68
2022-11-15T01:36:27.913Z,82.38
2022-11-15T01:41:46.941Z,81.28
2022-11-15T01:47:11.039Z,86.78
2022-11-15T01:52:33.275Z,82.55
2022-11-15T01:57:55.321Z,89.97
2022-11-15T02:03:16.266Z,88.03
2022-11-15T02:08:35.334Z,87.55
2022-11-15T02:13:54.780Z,79.80
2022-11-15T02:19:31.429Z,77.28
2022-11-15T02:25:05.717Z,83.18
2022-11-15T02:30:37.447Z,80.00
2022-11-15T02:36:01.612Z,78.82
2022-11-15T02:41:28.139Z,83.53
2022-11-15T02:47:10.819Z,87.60
2022-11-15T02:52:30.360Z,76.85
2022-11-15T02:57:55.422Z,78.05
2022-11-15T03:03:30.959Z,78.78
2022-11-15T03:09:00.031Z,73.10
2022-11-15T03:14:25.863Z,76.47
2022-11-15T03:19:49.538Z,74.00
2022-11-15T03:25:12.421Z,78.68
2022-11-15T03:30:35.092Z,76.60
2022-11-15T03:35:56.830Z,80.35
2022-11-15T03:41:24.463Z,74.07
2022-11-15T03:46:49.280Z,73.40
2022-11-15T03:52:12.562Z,73.18
2022-11-15T03:57:32.016Z,81.70
2022-11-15T04:02:51.411Z,69.35
2022-11-15T04:08:11.859Z,74.75
2022-11-15T04:13:31.409Z,74.60
2022-11-15T04:19:10.801Z,67.53
2022-11-15T04:24:31.751Z,68.85
2022-11-15T04:29:50.963Z,64.32
2022-11-15T04:35:11.067Z,73.40
2022-11-15T04:40:31.621Z,65.47
2022-11-15T04:45:50.860Z,68.57
2022-11-15T04:51:10.226Z,71.07
2022-11-15T04:56:30.730Z,62.70
2022-11-15T05:01:49.936Z,68.88
2022-11-15T05:07:09.072Z,65.38
2022-11-15T05:12:30.059Z,67.53
2022-11-15T05:17:49.106Z,63.92
2022-11-15T05:23:08.329Z,66.93
2022-11-15T05:28:29.271Z,63.88
2022-11-15T05:33:48.572Z,69.45
2022-11-15T05:39:09.423Z,65.53
2022-11-15T05:44:30.582Z,70.40
2022-11-15T05:49:51.566Z,71.03
2022-11-15T05:55:11.356Z,69.00
2022-11-15T06:00:32.163Z,68.13
2022-11-15T06:05:51.395Z,68.57
2022-11-15T06:11:10.585Z,62.78
2022-11-15T06:16:31.014Z,60.42
2022-11-15T06:21:50.259Z,67.13
2022-11-15T06:27:09.339Z,64.68
2022-11-15T06:32:31.087Z,58.88
2022-11-15T06:37:50.159Z,62.35
2022-11-15T06:43:09.585Z,59.17
2022-11-15T06:48:30.760Z,58.33
2022-11-15T06:53:50.032Z,60.58
2022-11-15T06:59:09.599Z,62.38
2022-11-15T07:04:29.998Z,59.40
2022-11-15T07:09:49.178Z,52.03
2022-11-15T07:15:09.451Z,53.10
2022-11-15T07:20:30.027Z,52.65
2022-11-15T07:25:49.030Z,52.42
2022-11-15T07:31:10.185Z,51.75
2022-11-15T07:36:30.874Z,56.60
2022-11-15T07:41:50.565Z,57.67
2022-11-15T07:47:10.057Z,56.75
2022-11-15T07:52:30.686Z,52.30
2022-11-15T07:57:50.061Z,52.83
2022-11-15T08:03:11.227Z,53.60
2022-11-15T08:08:32.042Z,50.67
2022-11-15T08:13:51.303Z,53.67
2022-11-15T08:19:10.610Z,51.03
2022-11-15T08:24:31.104Z,48.30
2022-11-15T08:29:51.826Z,46.45
2022-11-15T08:35:13.542Z,40.67
2022-11-15T08:40:34.660Z,46.22
2022-11-15T08:45:53.878Z,48.08
2022-11-15T08:51:13.105Z,45.95
2022-11-15T08:56:33.769Z,46.28
2022-11-15T09:01:53.128Z,47.40
2022-11-15T09:07:13.568Z,44.20
2022-11-15T09:12:34.421Z,41.25
2022-11-15T09:17:53.873Z,39.88
2022-11-15T09:23:12.915Z,44.35
2022-11-15T09:28:35.446Z,40.70
2022-11-15T09:33:55.031Z,39.15
2022-11-15T09:39:14.447Z,40.33
2022-11-15T09:44:44.875Z,37.10
2022-11-15T09:50:11.840Z,36.15
2022-11-15T09:55:22.479Z,35.92
2022-11-15T10:00:48.735Z,32.03
2022-11-15T10:05:53.104Z,39.15
2022-11-15T10:11:22.698Z,41.08
2022-11-15T10:16:39.715Z,38.78
2022-11-15T10:21:53.588Z,35.03
2022-11-15T10:26:54.458Z,31.63
2022-11-15T10:31:56.607Z,33.42
2022-11-15T10:36:58.760Z,37.78
2022-11-15T10:42:00.500Z,34.45
2022-11-15T10:47:23.333Z,34.53
2022-11-15T10:52:25.190Z,35.72
2022-11-15T10:57:28.879Z,33.05
2022-11-15T11:02:34.103Z,35.88
2022-11-15T11:07:36.947Z,32.65
2022-11-15T11:12:37.788Z,35.22
2022-11-15T11:17:53.513Z,30.30
2022-11-15T11:23:04.882Z,29.92
2022-11-15T11:28:28.993Z,25.98
2022-11-15T11:33:35.527Z,32.28
2022-11-15T11:38:55.870Z,27.63
2022-11-15T11:44:07.059Z,31.75
2022-11-15T11:49:14.477Z,31.00
2022-11-15T11:54:22.181Z,28.15
2022-11-15T11:59:28.177Z,31.40
2022-11-15T12:04:33.035Z,27.83
2022-11-15T12:09:39.032Z,33.00
2022-11-15T12:14:45.893Z,30.95
2022-11-15T12:19:48.157Z,35.72
2022-11-15T12:24:55.621Z,33.17
2022-11-15T12:30:00.372Z,27.50
2022-11-15T12:35:03.962Z,31.17
2022-11-15T12:40:32.448Z,30.50
2022-11-15T12:45:35.708Z,26.45
2022-11-15T12:50:59.119Z,32.38
2022-11-15T12:56:22.707Z,29.65
2022-11-15T13:02:01.915Z,27.48
2022-11-15T13:07:06.096Z,34.95
2022-11-15T13:12:14.593Z,33.40
2022-11-15T13:17:31.863Z,30.50
2022-11-15T13:23:00.242Z,30.02
2022-11-15T13:28:07.768Z,30.85
2022-11-15T13:33:15.739Z,30.27
2022-11-15T13:38:27.214Z,29.30
2022-11-15T13:43:38.041Z,29.63
2022-11-15T13:48:39.013Z,27.85
2022-11-15T13:53:47.710Z,34.30
2022-11-15T13:58:49.063Z,34.78
2022-11-15T14:03:53.616Z,32.60
2022-11-15T14:09:16.629Z,32.13
2022-11-15T14:14:17.522Z,32.97
2022-11-15T14:19:40.579Z,33.03
2022-11-15T14:24:44.415Z,32.35
2022-11-15T14:29:45.210Z,36.70
2022-11-15T14:34:46.314Z,37.53
2022-11-15T14:39:48.767Z,36.53
2022-11-15T14:44:49.583Z,29.45
2022-11-15T14:49:50.390Z,32.83
2022-11-15T14:54:52.928Z,32.78
2022-11-15T14:59:53.875Z,33.28
2022-11-15T15:04:55.489Z,37.55
2022-11-15T15:10:24.578Z,34.33
2022-11-15T15:15:22.289Z,36.10
2022-11-15T15:20:23.167Z,35.58
2022-11-15T15:25:28.917Z,34.95
2022-11-15T15:30:31.726Z,35.65
2022-11-15T15:35:35.442Z,35.10
2022-11-15T15:40:37.790Z,31.23
2022-11-15T15:45:40.401Z,39.40
2022-11-15T15:50:43.762Z,35.13
2022-11-15T15:55:46.493Z,39.15
2022-11-15T16:00:47.295Z,43.13
2022-11-15T16:05:48.230Z,35.67
2022-11-15T16:10:51.612Z,42.25
2022-11-15T16:15:55.185Z,43.55
2022-11-15T16:20:57.726Z,44.55
2022-11-15T16:25:59.947Z,40.63
2022-11-15T16:31:05.361Z,39.78
2022-11-15T16:36:08.477Z,43.40
2022-11-15T16:41:10.649Z,40.75
2022-11-15T16:46:17.993Z,45.00
2022-11-15T16:51:20.570Z,43.78
2022-11-15T16:56:26.034Z,46.05
2022-11-15T17:01:28.655Z,41.55
2022-11-15T17:06:29.590Z,39.20
2022-11-15T17:11:31.757Z,39.50
2022-11-15T17:16:34.442Z,42.90
2022-11-15T17:21:35.238Z,39.05
2022-11-15T17:26:40.519Z,42.08
2022-11-15T17:31:44.332Z,42.30
2022-11-15T17:36:45.606Z,48.08
2022-11-15T17:41:48.135Z,42.15
2022-11-15T17:46:48.929Z,42.28
2022-11-15T17:51:50.293Z,40.03
2022-11-15T17:56:52.552Z,40.58
2022-11-15T18:01:54.006Z,43.83
2022-11-15T18:06:55.362Z,44.97
2022-11-15T18:11:58.646Z,43.45
2022-11-15T18:16:59.493Z,44.58
2022-11-15T18:22:01.365Z,44.55
2022-11-15T18:27:05.534Z,41.72
2022-11-15T18:32:11.630Z,42.05
2022-11-15T18:37:12.638Z,38.20
2022-11-15T18:42:15.395Z,40.85
2022-11-15T18:47:16.211Z,41.03
2022-11-15T18:52:17.006Z,36.80
2022-11-15T18:57:19.232Z,38.72
2022-11-15T19:02:20.103Z,44.22
2022-11-15T19:07:20.872Z,40.40
2022-11-15T19:12:23.135Z,35.38
2022-11-15T19:17:23.988Z,36.95
2022-11-15T19:22:25.111Z,39.67
2022-11-15T19:27:27.393Z,39.47
2022-11-15T19:32:29.270Z,33.65
2022-11-15T19:37:30.241Z,31.23
2022-11-15T19:42:32.374Z,33.03
2022-11-15T19:47:33.181Z,29.13
2022-11-15T19:52:34.061Z,34.70
2022-11-15T19:57:36.287Z,29.83
2022-11-15T20:02:37.081Z,27.52
2022-11-15T20:07:37.986Z,25.38
2022-11-15T20:12:40.192Z,29.05
2022-11-15T20:17:41.031Z,25.75
2022-11-15T20:22:41.831Z,25.77
2022-11-15T20:27:44.106Z,27.98
2022-11-15T20:32:44.961Z,36.75
2022-11-15T20:37:46.768Z,26.73
2022-11-15T20:42:48.956Z,26.48
2022-11-15T20:47:49.773Z,30.42
2022-11-15T20:52:50.646Z,29.00
2022-11-15T20:57:53.168Z,29.35
2022-11-15T21:02:54.041Z,26.20
2022-11-15T21:07:54.843Z,28.52
2022-11-15T21:12:57.114Z,27.70
2022-11-15T21:17:57.969Z,24.73
2022-11-15T21:22:58.736Z,28.23
2022-11-15T21:28:00.936Z,25.73
2022-11-15T21:33:01.704Z,26.85
2022-11-15T21:38:02.542Z,25.40
2022-11-15T21:43:04.687Z,22.90
2022-11-15T21:48:06.188Z,21.88
2022-11-15T21:53:06.982Z,22.63
2022-11-15T21:58:09.135Z,25.42
2022-11-15T22:03:09.939Z,23.65
2022-11-15T22:08:10.810Z,22.95
2022-11-15T22:13:13.010Z,26.27
2022-11-15T22:18:14.030Z,25.23
2022-11-15T22:23:14.875Z,28.05
2022-11-15T22:28:17.338Z,24.98
2022-11-15T22:33:19.997Z,22.85
2022-11-15T22:38:21.320Z,21.90
2022-11-15T22:43:25.880Z,27.65
2022-11-15T22:48:28.245Z,20.67
2022-11-15T22:53:30.419Z,22.58
2022-11-15T22:58:33.890Z,18.55
2022-11-15T23:03:35.672Z,18.83
2022-11-15T23:08:37.008Z,19.77
2022-11-15T23:13:39.425Z,20.23
2022-11-15T23:18:42.252Z,18.98
2022-11-15T23:23:43.416Z,17.95
2022-11-15T23:28:45.590Z,17.40
2022-11-15T23:33:58.502Z,17.05
2022-11-15T23:38:59.355Z,21.23
2022-11-15T23:44:01.654Z,17.65
2022-11-15T23:49:02.702Z,18.13
2022-11-15T23:54:03.562Z,20.50
2022-11-15T23:59:06.009Z,16.38
